createdAt,value
2023-10-03T00:02:07.780Z,85.83
2023-10-03T00:04:40.185Z,85.62
2023-10-03T00:07:15.091Z,85.51
2023-10-03T00:09:47.820Z,85.32
2023-10-03T00:12:20.528Z,85.17
2023-10-03T00:14:53.032Z,84.94
2023-10-03T00:17:25.456Z,84.76
2023-10-03T00:19:57.864Z,84.76
2023-10-03T00:22:32.798Z,84.75
2023-10-03T00:25:06.316Z,84.50
2023-10-03T00:27:39.073Z,84.34
2023-10-03T00:30:13.484Z,84.05
2023-10-03T00:32:47.827Z,83.92
2023-10-03T00:35:22.719Z,83.78
2023-10-03T00:37:58.861Z,83.58
2023-10-03T00:40:33.118Z,83.41
2023-10-03T00:43:05.810Z,83.20
2023-10-03T00:45:39.376Z,83.25
2023-10-03T00:48:13.295Z,83.18
2023-10-03T00:50:47.452Z,83.14
2023-10-03T00:53:23.351Z,83.01
2023-10-03T00:56:00.740Z,83.04
2023-10-03T00:58:33.873Z,83.12
2023-10-03T01:01:07.118Z,83.13
2023-10-03T01:03:42.446Z,83.09
2023-10-03T01:06:17.033Z,83.03
2023-10-03T01:08:53.562Z,83.07
2023-10-03T01:11:26.606Z,83.14
2023-10-03T01:14:01.887Z,83.03
2023-10-03T01:16:36.204Z,82.84
2023-10-03T01:19:15.735Z,82.77
2023-10-03T01:21:48.493Z,82.76
2023-10-03T01:24:28.229Z,82.69
2023-10-03T01:27:00.661Z,82.64
2023-10-03T01:29:33.112Z,82.61
2023-10-03T01:32:05.564Z,82.49
2023-10-03T01:34:38.023Z,82.63
2023-10-03T01:37:10.370Z,82.47
2023-10-03T01:39:45.289Z,82.43
2023-10-03T01:42:17.929Z,82.34
2023-10-03T01:44:51.741Z,82.23
2023-10-03T01:47:24.128Z,82.24
2023-10-03T01:49:56.552Z,82.20
2023-10-03T01:52:29.190Z,82.25
2023-10-03T01:55:04.192Z,82.26
2023-10-03T01:57:36.615Z,82.35
2023-10-03T02:00:21.175Z,82.35
2023-10-03T02:02:54.397Z,82.34
2023-10-03T02:05:28.849Z,82.41
2023-10-03T02:08:05.524Z,82.47
2023-10-03T02:10:40.859Z,82.54
2023-10-03T02:13:16.354Z,82.62
2023-10-03T02:15:51.105Z,82.68
2023-10-03T02:18:25.772Z,82.78
2023-10-03T02:21:02.848Z,83.03
2023-10-03T02:23:36.649Z,83.07
2023-10-03T02:26:17.707Z,83.01
2023-10-03T02:28:51.027Z,82.94
2023-10-03T02:31:23.444Z,82.73
2023-10-03T02:33:57.271Z,82.58
2023-10-03T02:36:29.597Z,82.32
2023-10-03T02:39:02.306Z,81.95
2023-10-03T02:41:38.172Z,81.73
2023-10-03T02:44:11.516Z,81.43
2023-10-03T02:46:43.862Z,81.17
2023-10-03T02:49:16.432Z,80.95
2023-10-03T02:51:50.524Z,80.72
2023-10-03T02:54:24.088Z,80.42
2023-10-03T02:56:59.090Z,80.22
2023-10-03T02:59:32.609Z,79.99
2023-10-03T03:02:06.917Z,79.76
2023-10-03T03:04:40.129Z,79.41
2023-10-03T03:07:14.172Z,79.21
2023-10-03T03:09:46.606Z,78.92
2023-10-03T03:12:22.843Z,78.81
2023-10-03T03:14:57.511Z,78.74
2023-10-03T03:17:30.041Z,78.62
2023-10-03T03:20:12.334Z,78.52
2023-10-03T03:22:44.805Z,78.52
2023-10-03T03:25:23.103Z,78.47
2023-10-03T03:27:58.849Z,78.48
2023-10-03T03:30:46.279Z,78.46
2023-10-03T03:33:21.371Z,78.45
2023-10-03T03:35:53.872Z,78.48
2023-10-03T03:38:26.729Z,78.50
2023-10-03T03:41:06.039Z,78.48
2023-10-03T03:43:41.270Z,78.52
2023-10-03T03:46:14.000Z,78.45
2023-10-03T03:48:48.345Z,78.39
2023-10-03T03:51:21.120Z,78.44
2023-10-03T03:53:54.406Z,78.34
2023-10-03T03:56:26.852Z,78.25
2023-10-03T03:59:01.949Z,78.17
2023-10-03T04:01:34.930Z,77.84
2023-10-03T04:04:11.243Z,77.54
2023-10-03T04:06:44.114Z,77.31
2023-10-03T04:09:17.498Z,77.11
2023-10-03T04:11:50.107Z,77.05
2023-10-03T04:14:26.155Z,76.99
2023-10-03T04:16:58.385Z,77.11
2023-10-03T04:19:30.723Z,77.27
2023-10-03T04:22:03.266Z,77.78
2023-10-03T04:24:35.591Z,77.80
2023-10-03T04:27:08.551Z,77.78
2023-10-03T04:29:43.666Z,77.94
2023-10-03T04:32:15.961Z,78.28
2023-10-03T04:34:48.384Z,78.74
2023-10-03T04:37:20.780Z,79.14
2023-10-03T04:39:53.109Z,79.48
2023-10-03T04:42:25.489Z,79.80
2023-10-03T04:45:00.510Z,79.89
2023-10-03T04:47:34.322Z,80.03
2023-10-03T04:50:06.717Z,80.18
2023-10-03T04:52:39.087Z,80.34
2023-10-03T04:55:14.653Z,80.37
2023-10-03T04:57:47.392Z,80.46
2023-10-03T05:00:24.499Z,80.48
2023-10-03T05:02:59.089Z,80.45
2023-10-03T05:05:33.783Z,80.55
2023-10-03T05:08:06.719Z,80.36
2023-10-03T05:10:40.381Z,80.05
2023-10-03T05:13:13.390Z,80.10
2023-10-03T05:15:48.255Z,80.25
2023-10-03T05:18:20.550Z,80.07
2023-10-03T05:20:53.198Z,80.15
2023-10-03T05:23:25.707Z,79.86
2023-10-03T05:25:58.550Z,79.74
2023-10-03T05:28:30.952Z,79.64
2023-10-03T05:31:05.996Z,79.70
2023-10-03T05:33:38.386Z,79.31
2023-10-03T05:36:11.280Z,79.15
2023-10-03T05:38:43.573Z,78.96
2023-10-03T05:41:24.799Z,78.77
2023-10-03T05:43:57.768Z,78.92
2023-10-03T05:46:33.544Z,78.86
2023-10-03T05:49:05.969Z,78.75
2023-10-03T05:51:38.341Z,78.79
2023-10-03T05:54:10.693Z,78.88
2023-10-03T05:56:43.018Z,78.96
2023-10-03T05:59:16.203Z,78.90
2023-10-03T06:01:51.275Z,79.16
2023-10-03T06:04:23.843Z,79.32
2023-10-03T06:06:56.255Z,79.23
2023-10-03T06:09:28.499Z,79.17
2023-10-03T06:12:00.910Z,79.26
2023-10-03T06:14:34.894Z,79.25
2023-10-03T06:17:11.346Z,79.37
2023-10-03T06:19:43.691Z,79.13
2023-10-03T06:22:16.644Z,79.36
2023-10-03T06:24:50.509Z,79.23
2023-10-03T06:27:22.838Z,79.01
2023-10-03T06:29:55.344Z,79.17
2023-10-03T06:32:30.622Z,79.23
2023-10-03T06:35:06.447Z,79.01
2023-10-03T06:37:39.533Z,78.78
2023-10-03T06:40:15.263Z,78.91
2023-10-03T06:42:47.699Z,79.03
2023-10-03T06:45:22.554Z,78.93
2023-10-03T06:47:57.604Z,78.70
2023-10-03T06:50:30.040Z,78.25
2023-10-03T06:53:02.559Z,78.39
2023-10-03T06:55:37.057Z,78.18
2023-10-03T06:58:12.088Z,77.42
2023-10-03T07:00:45.048Z,77.12
2023-10-03T07:03:20.908Z,76.79
2023-10-03T07:05:53.603Z,76.45
2023-10-03T07:08:26.688Z,76.43
2023-10-03T07:11:00.118Z,76.43
2023-10-03T07:13:35.564Z,76.49
2023-10-03T07:16:10.317Z,76.67
2023-10-03T07:18:48.405Z,76.36
2023-10-03T07:21:21.114Z,76.36
2023-10-03T07:23:54.795Z,76.40
2023-10-03T07:26:29.312Z,76.44
2023-10-03T07:29:03.562Z,76.13
2023-10-03T07:31:38.463Z,75.81
2023-10-03T07:34:18.859Z,76.62
2023-10-03T07:36:51.145Z,77.24
2023-10-03T07:39:26.450Z,77.44
2023-10-03T07:41:58.858Z,77.32
2023-10-03T07:44:31.609Z,77.59
2023-10-03T07:47:05.163Z,77.53
2023-10-03T07:49:42.608Z,77.64
2023-10-03T07:52:15.383Z,78.02
2023-10-03T07:54:50.072Z,78.08
2023-10-03T07:57:22.358Z,78.81
2023-10-03T07:59:54.974Z,81.33
2023-10-03T08:02:33.761Z,82.55
2023-10-03T08:05:09.890Z,84.16
2023-10-03T08:07:44.059Z,85.79
2023-10-03T08:10:16.680Z,85.75
2023-10-03T08:12:53.996Z,86.49
2023-10-03T08:15:33.008Z,87.15
2023-10-03T08:18:05.902Z,86.83
2023-10-03T08:20:41.383Z,87.73
2023-10-03T08:23:15.220Z,87.87
2023-10-03T08:25:47.469Z,88.46
2023-10-03T08:28:22.062Z,88.66
2023-10-03T08:30:56.872Z,88.68
2023-10-03T08:33:29.311Z,89.56
2023-10-03T08:36:04.460Z,87.35
2023-10-03T08:38:44.916Z,86.41
2023-10-03T08:41:27.556Z,87.30
2023-10-03T08:44:07.018Z,88.19
2023-10-03T08:46:42.772Z,88.44
2023-10-03T08:49:19.074Z,90.00
2023-10-03T08:51:54.931Z,89.67
2023-10-03T08:54:37.965Z,89.12
2023-10-03T08:57:11.301Z,89.65
2023-10-03T08:59:44.099Z,89.96
2023-10-03T09:02:25.746Z,89.94
2023-10-03T09:04:58.663Z,89.28
2023-10-03T09:07:47.730Z,89.15
2023-10-03T09:10:26.785Z,88.11
2023-10-03T09:13:05.434Z,86.65
2023-10-03T09:15:39.129Z,85.93
2023-10-03T09:18:16.575Z,86.04
2023-10-03T09:20:51.314Z,85.85
2023-10-03T09:23:26.311Z,85.83
2023-10-03T09:25:59.940Z,85.05
2023-10-03T09:28:37.044Z,85.97
2023-10-03T09:31:12.296Z,86.57
2023-10-03T09:33:46.980Z,86.16
2023-10-03T09:36:20.185Z,85.12
2023-10-03T09:38:57.185Z,84.57
2023-10-03T09:41:31.430Z,83.78
2023-10-03T09:44:06.744Z,83.69
2023-10-03T09:46:42.722Z,82.19
2023-10-03T09:49:16.252Z,82.77
2023-10-03T09:51:52.954Z,82.52
2023-10-03T09:54:32.116Z,81.68
2023-10-03T09:57:16.661Z,81.52
2023-10-03T09:59:51.123Z,81.17
2023-10-03T10:02:32.440Z,81.56
2023-10-03T10:05:20.788Z,83.20
2023-10-03T10:08:08.287Z,83.43
2023-10-03T10:10:43.230Z,84.37
2023-10-03T10:13:22.416Z,84.83
2023-10-03T10:16:22.460Z,84.14
2023-10-03T10:19:06.087Z,84.27
2023-10-03T10:21:41.001Z,83.57
2023-10-03T10:24:38.129Z,82.69
2023-10-03T10:27:25.819Z,82.27
2023-10-03T10:30:14.995Z,82.45
2023-10-03T10:33:17.817Z,80.16
2023-10-03T10:35:58.117Z,78.09
2023-10-03T10:38:58.974Z,79.89
2023-10-03T10:41:29.079Z,79.54
2023-10-03T10:44:18.429Z,79.48
2023-10-03T10:46:53.532Z,79.42
2023-10-03T10:50:09.651Z,79.68
2023-10-03T10:52:55.511Z,79.86
2023-10-03T10:55:29.363Z,79.48
2023-10-03T10:58:10.008Z,80.00
2023-10-03T11:00:46.103Z,79.52
2023-10-03T11:03:26.147Z,79.69
2023-10-03T11:06:00.325Z,78.56
2023-10-03T11:08:32.751Z,79.18
2023-10-03T11:11:05.048Z,80.19
2023-10-03T11:13:49.998Z,80.37
2023-10-03T11:16:32.963Z,80.07
2023-10-03T11:19:07.931Z,78.62
2023-10-03T11:21:41.793Z,78.30
2023-10-03T11:24:16.455Z,78.94
2023-10-03T11:26:51.582Z,79.10
2023-10-03T11:29:40.835Z,78.82
2023-10-03T11:32:30.599Z,79.06
2023-10-03T11:35:04.250Z,80.14
2023-10-03T11:37:41.451Z,81.36
2023-10-03T11:40:17.743Z,81.88
2023-10-03T11:42:51.908Z,81.27
2023-10-03T11:45:30.623Z,82.07
2023-10-03T11:48:12.541Z,81.84
2023-10-03T11:50:45.773Z,83.68
2023-10-03T11:53:20.170Z,83.93
2023-10-03T11:55:57.831Z,85.32
2023-10-03T11:58:30.750Z,85.36
2023-10-03T12:01:03.412Z,85.72
2023-10-03T12:03:39.443Z,87.50
2023-10-03T12:06:11.912Z,87.40
2023-10-03T12:08:44.915Z,87.80
2023-10-03T12:11:17.788Z,87.73
2023-10-03T12:13:50.108Z,87.63
2023-10-03T12:16:23.701Z,88.39
2023-10-03T12:18:59.187Z,88.74
2023-10-03T12:21:31.648Z,88.26
2023-10-03T12:24:04.557Z,88.13
2023-10-03T12:26:37.651Z,88.69
2023-10-03T12:29:11.901Z,88.23
2023-10-03T12:31:45.745Z,87.92
2023-10-03T12:34:20.739Z,87.36
2023-10-03T12:36:53.020Z,86.66
2023-10-03T12:39:26.285Z,86.10
2023-10-03T12:41:59.718Z,84.86
2023-10-03T12:44:32.358Z,85.33
2023-10-03T12:47:05.595Z,85.19
2023-10-03T12:49:42.103Z,83.05
2023-10-03T12:52:14.358Z,82.00
2023-10-03T12:54:46.853Z,82.51
2023-10-03T12:57:19.323Z,81.01
2023-10-03T12:59:53.672Z,81.11
2023-10-03T13:02:27.655Z,80.55
2023-10-03T13:05:06.603Z,81.21
2023-10-03T13:07:41.723Z,80.17
2023-10-03T13:10:15.034Z,80.85
2023-10-03T13:12:48.141Z,80.84
2023-10-03T13:15:22.198Z,81.33
2023-10-03T13:17:57.858Z,83.22
2023-10-03T13:20:32.746Z,83.85
2023-10-03T13:23:06.160Z,83.38
2023-10-03T13:25:39.326Z,83.95
2023-10-03T13:28:12.191Z,84.77
2023-10-03T13:30:44.726Z,85.28
2023-10-03T13:33:17.217Z,86.12
2023-10-03T13:35:52.198Z,87.47
2023-10-03T13:38:24.697Z,88.17
2023-10-03T13:40:56.947Z,88.03
2023-10-03T13:43:31.097Z,87.19
2023-10-03T13:46:03.539Z,85.55
2023-10-03T13:48:37.125Z,85.65
2023-10-03T13:51:16.237Z,84.66
2023-10-03T13:53:48.843Z,83.85
2023-10-03T13:56:22.547Z,83.68
2023-10-03T13:58:54.813Z,84.17
2023-10-03T14:01:27.201Z,82.01
2023-10-03T14:03:59.589Z,77.23
2023-10-03T14:06:35.527Z,72.29
2023-10-03T14:09:10.882Z,70.54
2023-10-03T14:11:43.430Z,67.96
2023-10-03T14:14:15.824Z,65.54
2023-10-03T14:16:48.113Z,64.27
2023-10-03T14:19:20.992Z,62.45
2023-10-03T14:21:55.945Z,64.44
2023-10-03T14:24:28.390Z,64.38
2023-10-03T14:27:00.941Z,64.62
2023-10-03T14:29:33.313Z,64.65
2023-10-03T14:32:05.653Z,64.57
2023-10-03T14:34:38.097Z,64.34
2023-10-03T14:37:14.593Z,64.76
2023-10-03T14:39:46.935Z,65.80
2023-10-03T14:42:19.294Z,68.16
2023-10-03T14:44:51.868Z,68.84
2023-10-03T14:47:24.223Z,70.23
2023-10-03T14:49:56.700Z,70.39
2023-10-03T14:52:31.868Z,70.54
2023-10-03T14:55:05.897Z,71.36
2023-10-03T14:57:38.194Z,71.47
2023-10-03T15:00:12.707Z,71.97
2023-10-03T15:02:45.624Z,71.73
2023-10-03T15:05:18.926Z,71.32
2023-10-03T15:07:53.855Z,72.17
2023-10-03T15:10:26.111Z,72.66
2023-10-03T15:13:00.084Z,72.82
2023-10-03T15:15:33.978Z,72.38
2023-10-03T15:18:06.382Z,69.79
2023-10-03T15:20:38.918Z,68.50
2023-10-03T15:23:13.956Z,69.32
2023-10-03T15:25:49.507Z,67.85
2023-10-03T15:28:21.932Z,67.52
2023-10-03T15:30:57.121Z,68.45
2023-10-03T15:33:30.064Z,68.15
2023-10-03T15:36:02.482Z,66.68
2023-10-03T15:38:38.352Z,67.19
2023-10-03T15:41:10.645Z,67.35
2023-10-03T15:43:44.675Z,67.57
2023-10-03T15:46:17.591Z,67.59
2023-10-03T15:48:49.936Z,67.86
2023-10-03T15:51:25.425Z,67.64
2023-10-03T15:54:00.781Z,67.79
2023-10-03T15:56:34.129Z,66.02
2023-10-03T15:59:10.223Z,65.14
2023-10-03T16:01:43.136Z,65.15
2023-10-03T16:04:15.818Z,65.80
2023-10-03T16:06:48.859Z,66.10
2023-10-03T16:09:26.297Z,66.48
2023-10-03T16:11:59.819Z,67.07
2023-10-03T16:14:32.149Z,67.76
2023-10-03T16:17:04.523Z,67.44
2023-10-03T16:19:37.909Z,67.80
2023-10-03T16:22:10.880Z,67.84
2023-10-03T16:24:45.917Z,68.26
2023-10-03T16:27:18.484Z,69.14
2023-10-03T16:29:50.883Z,68.84
2023-10-03T16:32:23.267Z,68.83
2023-10-03T16:34:55.646Z,68.77
2023-10-03T16:37:28.121Z,68.87
2023-10-03T16:40:04.651Z,69.15
2023-10-03T16:42:37.841Z,69.54
2023-10-03T16:45:11.687Z,70.01
2023-10-03T16:47:44.856Z,70.04
2023-10-03T16:50:18.208Z,70.50
2023-10-03T16:52:52.303Z,70.43
2023-10-03T16:55:27.347Z,70.88
2023-10-03T16:58:01.594Z,71.51
2023-10-03T17:00:36.304Z,71.39
2023-10-03T17:03:09.723Z,72.14
2023-10-03T17:05:44.406Z,71.94
2023-10-03T17:08:17.200Z,72.40
2023-10-03T17:10:52.296Z,73.15
2023-10-03T17:13:24.756Z,73.85
2023-10-03T17:15:57.085Z,73.53
2023-10-03T17:18:31.557Z,73.65
2023-10-03T17:21:09.526Z,73.97
2023-10-03T17:23:44.238Z,74.31
2023-10-03T17:26:22.558Z,74.42
2023-10-03T17:28:58.510Z,75.00
2023-10-03T17:31:31.178Z,75.22
2023-10-03T17:34:05.244Z,75.64
2023-10-03T17:36:37.793Z,76.34
2023-10-03T17:39:12.248Z,77.41
2023-10-03T17:41:48.171Z,77.83
2023-10-03T17:44:22.046Z,79.54
2023-10-03T17:46:54.339Z,80.42
2023-10-03T17:49:26.907Z,81.12
2023-10-03T17:51:59.219Z,81.69
2023-10-03T17:54:34.266Z,82.29
2023-10-03T17:57:10.644Z,82.73
2023-10-03T17:59:50.235Z,82.87
2023-10-03T18:02:35.044Z,83.46
2023-10-03T18:05:08.659Z,83.65
2023-10-03T18:07:43.282Z,84.06
2023-10-03T18:10:18.743Z,84.69
2023-10-03T18:13:01.154Z,84.79
2023-10-03T18:15:33.953Z,85.09
2023-10-03T18:18:06.351Z,85.14
2023-10-03T18:20:38.858Z,85.48
2023-10-03T18:23:11.776Z,86.27
2023-10-03T18:25:45.258Z,86.42
2023-10-03T18:28:20.360Z,86.56
2023-10-03T18:30:54.059Z,86.74
2023-10-03T18:33:26.877Z,86.69
2023-10-03T18:35:59.408Z,86.73
2023-10-03T18:38:33.342Z,87.17
2023-10-03T18:41:05.582Z,87.04
2023-10-03T18:43:40.676Z,87.39
2023-10-03T18:46:13.401Z,87.57
2023-10-03T18:48:45.899Z,87.91
2023-10-03T18:51:18.636Z,88.19
2023-10-03T18:53:54.334Z,88.04
2023-10-03T18:56:26.739Z,88.14
2023-10-03T18:59:01.892Z,88.12
2023-10-03T19:01:48.300Z,88.74
2023-10-03T19:04:22.662Z,88.42
2023-10-03T19:06:55.366Z,88.59
2023-10-03T19:09:29.834Z,88.70
2023-10-03T19:12:08.303Z,88.83
2023-10-03T19:14:44.314Z,88.97
2023-10-03T19:17:19.034Z,89.10
2023-10-03T19:19:55.477Z,89.28
2023-10-03T19:22:30.779Z,89.01
2023-10-03T19:25:09.514Z,89.03
2023-10-03T19:27:42.611Z,88.89
2023-10-03T19:30:20.411Z,88.75
2023-10-03T19:32:53.230Z,88.64
2023-10-03T19:35:25.767Z,88.32
2023-10-03T19:37:58.915Z,88.60
2023-10-03T19:40:32.875Z,88.38
2023-10-03T19:43:06.045Z,88.34
2023-10-03T19:45:41.934Z,88.04
2023-10-03T19:48:14.367Z,88.49
2023-10-03T19:50:46.713Z,88.34
2023-10-03T19:53:19.687Z,88.43
2023-10-03T19:55:51.977Z,88.55
2023-10-03T19:58:24.379Z,88.70
2023-10-03T20:00:59.436Z,88.62
2023-10-03T20:03:32.093Z,88.72
2023-10-03T20:06:09.711Z,88.38
2023-10-03T20:08:42.123Z,87.86
2023-10-03T20:11:14.901Z,87.60
2023-10-03T20:13:48.693Z,87.65
2023-10-03T20:16:25.135Z,87.44
2023-10-03T20:18:58.142Z,87.57
2023-10-03T20:21:30.606Z,87.85
2023-10-03T20:24:03.308Z,88.79
2023-10-03T20:26:35.704Z,88.65
2023-10-03T20:29:08.088Z,88.45
2023-10-03T20:31:43.047Z,88.29
2023-10-03T20:34:16.202Z,88.07
2023-10-03T20:36:49.112Z,87.83
2023-10-03T20:39:22.157Z,87.62
2023-10-03T20:41:54.617Z,87.65
2023-10-03T20:44:27.061Z,87.67
2023-10-03T20:47:05.699Z,87.82
2023-10-03T20:49:38.016Z,88.24
2023-10-03T20:52:10.914Z,88.59
2023-10-03T20:54:43.122Z,88.30
2023-10-03T20:57:15.514Z,88.51
2023-10-03T20:59:47.847Z,88.57
2023-10-03T21:02:24.670Z,88.50
2023-10-03T21:04:58.624Z,88.31
2023-10-03T21:07:32.386Z,88.33
2023-10-03T21:10:06.324Z,88.65
2023-10-03T21:12:38.652Z,88.41
2023-10-03T21:15:13.433Z,88.64
2023-10-03T21:17:48.816Z,88.24
2023-10-03T21:20:21.100Z,88.53
2023-10-03T21:22:55.478Z,88.18
2023-10-03T21:25:28.137Z,88.58
2023-10-03T21:28:01.717Z,88.49
2023-10-03T21:30:34.171Z,88.10
2023-10-03T21:33:10.520Z,87.99
2023-10-03T21:35:42.902Z,88.26
2023-10-03T21:38:15.180Z,88.08
2023-10-03T21:40:48.263Z,88.32
2023-10-03T21:43:20.728Z,88.72
2023-10-03T21:45:53.100Z,88.71
2023-10-03T21:48:28.141Z,88.83
2023-10-03T21:51:06.288Z,88.58
2023-10-03T21:53:41.918Z,88.51
2023-10-03T21:56:15.065Z,87.86
2023-10-03T21:58:47.818Z,87.35
2023-10-03T22:01:27.364Z,87.52
2023-10-03T22:04:02.961Z,87.21
2023-10-03T22:06:35.261Z,86.92
2023-10-03T22:09:11.326Z,87.17
2023-10-03T22:11:43.751Z,87.10
2023-10-03T22:14:18.948Z,87.05
2023-10-03T22:16:51.822Z,86.79
2023-10-03T22:19:27.067Z,86.73
2023-10-03T22:21:59.381Z,86.80
2023-10-03T22:24:31.884Z,87.12
2023-10-03T22:27:04.218Z,86.69
2023-10-03T22:29:36.506Z,86.50
2023-10-03T22:32:09.910Z,86.50
2023-10-03T22:34:44.931Z,86.21
2023-10-03T22:37:17.198Z,85.78
2023-10-03T22:39:51.548Z,86.11
2023-10-03T22:42:24.524Z,86.23
2023-10-03T22:44:57.170Z,86.24
2023-10-03T22:47:29.549Z,85.98
2023-10-03T22:50:05.408Z,85.71
2023-10-03T22:52:37.786Z,85.58
2023-10-03T22:55:10.630Z,85.54
2023-10-03T22:57:42.931Z,85.67
2023-10-03T23:00:16.506Z,85.39
2023-10-03T23:02:48.895Z,85.38
2023-10-03T23:05:24.131Z,85.46
2023-10-03T23:07:56.365Z,85.63
2023-10-03T23:10:29.192Z,85.40
2023-10-03T23:13:01.704Z,85.37
2023-10-03T23:15:34.065Z,85.15
2023-10-03T23:18:06.472Z,85.49
2023-10-03T23:20:44.641Z,85.54
2023-10-03T23:23:17.334Z,85.49
2023-10-03T23:25:49.625Z,85.83
2023-10-03T23:28:22.054Z,85.67
2023-10-03T23:30:54.373Z,86.17
2023-10-03T23:33:28.178Z,86.27
2023-10-03T23:36:04.236Z,86.78
2023-10-03T23:38:37.081Z,86.55
2023-10-03T23:41:10.917Z,86.46
2023-10-03T23:43:43.276Z,86.56
2023-10-03T23:46:15.590Z,86.02
2023-10-03T23:48:49.269Z,86.57
2023-10-03T23:51:24.394Z,86.66
2023-10-03T23:53:57.721Z,86.79
2023-10-03T23:56:35.019Z,86.77
2023-10-03T23:59:11.116Z,87.25
